createdAt,value
2019-04-10T00:02:05.592Z,94.90
2019-04-10T00:04:36.972Z,94.30
2019-04-10T00:07:14.253Z,94.20
2019-04-10T00:09:41.468Z,94.40
2019-04-10T00:12:14.096Z,94.20
2019-04-10T00:14:45.239Z,94.20
2019-04-10T00:17:16.549Z,94.10
2019-04-10T00:19:47.883Z,94.00
2019-04-10T00:22:20.088Z,94.20
2019-04-10T00:24:52.429Z,94.00
2019-04-10T00:27:23.486Z,94.00
2019-04-10T00:29:54.456Z,94.30
2019-04-10T00:32:25.945Z,94.00
2019-04-10T00:34:58.194Z,94.50
2019-04-10T00:37:31.590Z,93.80
2019-04-10T00:40:03.375Z,93.80
2019-04-10T00:42:34.888Z,93.70
2019-04-10T00:45:07.164Z,93.20
2019-04-10T00:47:39.291Z,94.40
2019-04-10T00:50:10.717Z,93.70
2019-04-10T00:52:41.935Z,94.40
2019-04-10T00:55:13.306Z,93.30
2019-04-10T00:57:45.560Z,93.90
2019-04-10T01:00:18.906Z,93.50
2019-04-10T01:02:51.377Z,93.80
2019-04-10T01:05:22.914Z,93.40
2019-04-10T01:07:54.105Z,94.50
2019-04-10T01:10:26.249Z,93.60
2019-04-10T01:12:58.624Z,94.20
2019-04-10T01:15:30.810Z,94.00
2019-04-10T01:18:03.330Z,94.20
2019-04-10T01:20:34.724Z,93.40
2019-04-10T01:23:05.912Z,93.40
2019-04-10T01:25:37.086Z,93.70
2019-04-10T01:28:08.759Z,93.80
2019-04-10T01:30:40.314Z,93.20
2019-04-10T01:33:12.423Z,93.30
2019-04-10T01:35:44.563Z,93.60
2019-04-10T01:38:15.975Z,93.80
2019-04-10T01:40:47.631Z,93.10
2019-04-10T01:43:19.975Z,93.30
2019-04-10T01:45:51.569Z,93.60
2019-04-10T01:48:23.782Z,94.20
2019-04-10T01:50:55.308Z,94.30
2019-04-10T01:53:26.443Z,93.30
2019-04-10T01:55:57.591Z,93.30
2019-04-10T01:58:29.385Z,94.40
2019-04-10T02:01:26.208Z,93.80
2019-04-10T02:03:58.391Z,94.00
2019-04-10T02:06:30.239Z,93.70
2019-04-10T02:09:02.449Z,93.00
2019-04-10T02:11:34.732Z,93.00
2019-04-10T02:14:07.812Z,93.90
2019-04-10T02:16:39.110Z,94.20
2019-04-10T02:19:10.537Z,93.30
2019-04-10T02:21:42.146Z,92.90
2019-04-10T02:24:14.546Z,93.50
2019-04-10T02:26:45.674Z,93.10
2019-04-10T02:29:17.641Z,93.20
2019-04-10T02:31:50.528Z,94.10
2019-04-10T02:34:23.147Z,94.30
2019-04-10T02:36:55.295Z,93.40
2019-04-10T02:39:36.146Z,93.40
2019-04-10T02:42:00.577Z,94.00
2019-04-10T02:44:33.014Z,93.50
2019-04-10T02:47:04.592Z,94.10
2019-04-10T02:49:36.437Z,93.50
2019-04-10T02:52:08.826Z,94.00
2019-04-10T02:54:41.709Z,94.00
2019-04-10T02:57:13.560Z,93.70
2019-04-10T02:59:45.445Z,93.80
2019-04-10T03:02:17.107Z,93.50
2019-04-10T03:04:49.085Z,94.80
2019-04-10T03:07:21.907Z,94.20
2019-04-10T03:10:05.767Z,94.40
2019-04-10T03:12:28.451Z,94.50
2019-04-10T03:15:01.125Z,94.00
2019-04-10T03:17:33.636Z,94.60
2019-04-10T03:20:06.218Z,94.40
2019-04-10T03:22:37.159Z,94.90
2019-04-10T03:25:08.929Z,94.50
2019-04-10T03:27:40.663Z,94.50
2019-04-10T03:30:13.289Z,94.50
2019-04-10T03:33:03.351Z,93.60
2019-04-10T03:35:34.659Z,94.00
2019-04-10T03:38:05.851Z,94.10
2019-04-10T03:40:37.596Z,94.10
2019-04-10T03:43:09.698Z,94.30
2019-04-10T03:45:41.144Z,94.20
2019-04-10T03:48:12.172Z,94.10
2019-04-10T03:50:43.679Z,94.50
2019-04-10T03:53:16.041Z,94.40
2019-04-10T03:55:47.384Z,94.20
2019-04-10T03:58:19.668Z,93.60
2019-04-10T04:00:50.943Z,94.00
2019-04-10T04:03:22.590Z,93.50
2019-04-10T04:05:53.867Z,94.30
2019-04-10T04:08:25.727Z,93.90
2019-04-10T04:10:57.272Z,94.10
2019-04-10T04:13:28.524Z,94.70
2019-04-10T04:16:00.215Z,94.60
2019-04-10T04:18:31.470Z,94.40
2019-04-10T04:21:03.492Z,94.30
2019-04-10T04:23:34.695Z,94.40
2019-04-10T04:26:07.159Z,94.40
2019-04-10T04:28:39.711Z,93.80
2019-04-10T04:31:11.050Z,94.40
2019-04-10T04:33:42.494Z,94.30
2019-04-10T04:36:13.397Z,95.00
2019-04-10T04:38:45.249Z,94.60
2019-04-10T04:41:17.412Z,94.90
2019-04-10T04:43:48.763Z,94.60
2019-04-10T04:46:20.949Z,94.50
2019-04-10T04:48:52.303Z,94.40
2019-04-10T04:51:23.471Z,94.50
2019-04-10T04:53:54.802Z,95.00
2019-04-10T04:56:26.179Z,94.90
2019-04-10T04:58:57.368Z,94.60
2019-04-10T05:01:29.749Z,94.80
2019-04-10T05:04:02.384Z,94.80
2019-04-10T05:06:35.069Z,94.90
2019-04-10T05:09:07.471Z,94.60
2019-04-10T05:11:38.545Z,94.50
2019-04-10T05:14:09.674Z,95.00
2019-04-10T05:16:41.654Z,95.00
2019-04-10T05:19:12.883Z,95.00
2019-04-10T05:21:45.567Z,94.80
2019-04-10T05:24:22.025Z,95.30
2019-04-10T05:26:53.612Z,94.80
2019-04-10T05:29:25.123Z,94.90
2019-04-10T05:31:56.554Z,94.80
2019-04-10T05:34:27.700Z,95.10
2019-04-10T05:36:58.859Z,94.70
2019-04-10T05:39:39.835Z,94.70
2019-04-10T05:42:02.896Z,94.60
2019-04-10T05:44:34.612Z,94.40
2019-04-10T05:47:06.077Z,94.50
2019-04-10T05:49:37.328Z,94.70
2019-04-10T05:52:08.443Z,94.70
2019-04-10T05:54:39.863Z,94.60
2019-04-10T05:57:11.056Z,94.40
2019-04-10T05:59:42.207Z,94.20
2019-04-10T06:02:13.859Z,94.10
2019-04-10T06:04:45.464Z,94.00
2019-04-10T06:07:17.030Z,93.90
2019-04-10T06:09:55.824Z,93.90
2019-04-10T06:12:20.627Z,94.00
2019-04-10T06:14:52.785Z,93.70
2019-04-10T06:17:24.652Z,93.70
2019-04-10T06:19:56.715Z,93.50
2019-04-10T06:22:28.524Z,93.50
2019-04-10T06:25:00.736Z,93.50
2019-04-10T06:27:33.320Z,93.50
2019-04-10T06:30:05.721Z,93.60
2019-04-10T06:32:37.723Z,93.20
2019-04-10T06:35:09.307Z,93.20
2019-04-10T06:37:40.423Z,93.00
2019-04-10T06:40:18.646Z,93.00
2019-04-10T06:42:49.773Z,92.80
2019-04-10T06:45:17.833Z,92.20
2019-04-10T06:47:49.067Z,92.20
2019-04-10T06:50:21.057Z,92.30
2019-04-10T06:52:52.794Z,92.20
2019-04-10T06:55:23.767Z,92.40
2019-04-10T06:57:57.684Z,92.90
2019-04-10T07:00:28.579Z,92.50
2019-04-10T07:02:59.631Z,92.00
2019-04-10T07:05:39.855Z,92.20
2019-04-10T07:08:13.445Z,92.30
2019-04-10T07:10:48.274Z,92.60
2019-04-10T07:13:13.057Z,92.20
2019-04-10T07:15:45.345Z,91.90
2019-04-10T07:18:18.902Z,91.90
2019-04-10T07:20:50.379Z,92.10
2019-04-10T07:23:27.452Z,91.70
2019-04-10T07:25:56.400Z,91.90
2019-04-10T07:28:27.936Z,91.90
2019-04-10T07:31:05.032Z,92.00
2019-04-10T07:33:31.416Z,92.50
2019-04-10T07:36:07.612Z,92.00
2019-04-10T07:38:35.219Z,91.90
2019-04-10T07:41:13.951Z,92.20
2019-04-10T07:43:39.151Z,91.70
2019-04-10T07:46:10.039Z,92.10
2019-04-10T07:48:41.428Z,91.60
2019-04-10T07:51:13.512Z,91.20
2019-04-10T07:53:44.747Z,90.60
2019-04-10T07:56:19.268Z,90.70
2019-04-10T07:58:48.870Z,90.70
2019-04-10T08:01:20.076Z,91.00
2019-04-10T08:03:52.445Z,91.20
2019-04-10T08:06:24.148Z,91.00
2019-04-10T08:08:55.489Z,90.60
2019-04-10T08:11:26.459Z,88.90
2019-04-10T08:13:57.875Z,90.10
2019-04-10T08:16:29.459Z,90.10
2019-04-10T08:19:01.899Z,90.20
2019-04-10T08:21:33.131Z,88.70
2019-04-10T08:24:04.404Z,88.70
2019-04-10T08:26:36.604Z,88.90
2019-04-10T08:29:07.823Z,88.00
2019-04-10T08:31:39.641Z,89.60
2019-04-10T08:34:10.982Z,86.90
2019-04-10T08:36:42.251Z,87.90
2019-04-10T08:39:26.976Z,88.90
2019-04-10T08:41:46.298Z,87.30
2019-04-10T08:44:19.892Z,88.00
2019-04-10T08:46:51.051Z,87.00
2019-04-10T08:49:22.883Z,87.70
2019-04-10T08:51:54.044Z,87.00
2019-04-10T08:54:25.917Z,87.60
2019-04-10T08:56:57.411Z,87.00
2019-04-10T08:59:29.912Z,88.50
2019-04-10T09:02:01.956Z,86.30
2019-04-10T09:04:33.646Z,85.60
2019-04-10T09:07:05.773Z,86.20
2019-04-10T09:09:37.655Z,87.10
2019-04-10T09:12:09.398Z,86.90
2019-04-10T09:14:41.292Z,87.00
2019-04-10T09:17:13.238Z,86.40
2019-04-10T09:19:44.459Z,87.00
2019-04-10T09:22:16.205Z,88.00
2019-04-10T09:24:48.778Z,87.30
2019-04-10T09:27:20.016Z,87.40
2019-04-10T09:29:52.110Z,87.00
2019-04-10T09:32:23.738Z,86.70
2019-04-10T09:34:56.081Z,87.20
2019-04-10T09:37:28.135Z,87.30
2019-04-10T09:40:00.101Z,86.70
2019-04-10T09:42:31.440Z,88.10
2019-04-10T09:45:02.684Z,87.40
2019-04-10T09:47:35.483Z,87.00
2019-04-10T09:50:07.772Z,88.40
2019-04-10T09:52:39.728Z,88.20
2019-04-10T09:55:11.706Z,88.80
2019-04-10T09:57:43.222Z,87.90
2019-04-10T10:00:14.644Z,87.90
2019-04-10T10:02:47.451Z,87.80
2019-04-10T10:05:18.665Z,88.00
2019-04-10T10:07:50.604Z,87.40
2019-04-10T10:10:22.658Z,88.60
2019-04-10T10:12:53.936Z,86.60
2019-04-10T10:15:25.352Z,88.70
2019-04-10T10:17:57.136Z,86.90
2019-04-10T10:20:29.664Z,86.20
2019-04-10T10:23:01.357Z,88.30
2019-04-10T10:25:32.716Z,87.50
2019-04-10T10:28:04.670Z,87.10
2019-04-10T10:30:36.320Z,87.20
2019-04-10T10:33:07.794Z,86.70
2019-04-10T10:35:39.072Z,86.20
2019-04-10T10:38:10.559Z,86.10
2019-04-10T10:40:41.831Z,86.00
2019-04-10T10:43:13.208Z,84.70
2019-04-10T10:45:45.021Z,86.30
2019-04-10T10:48:15.978Z,85.60
2019-04-10T10:50:47.765Z,85.20
2019-04-10T10:53:19.883Z,85.90
2019-04-10T10:55:51.238Z,84.10
2019-04-10T10:58:22.106Z,85.50
2019-04-10T11:00:53.711Z,84.00
2019-04-10T11:03:26.501Z,83.30
2019-04-10T11:05:58.260Z,82.70
2019-04-10T11:08:29.597Z,84.50
2019-04-10T11:11:01.126Z,82.90
2019-04-10T11:13:33.133Z,83.70
2019-04-10T11:16:07.114Z,81.80
2019-04-10T11:18:37.992Z,80.80
2019-04-10T11:21:11.709Z,78.60
2019-04-10T11:23:42.448Z,79.60
2019-04-10T11:26:18.917Z,82.70
2019-04-10T11:28:47.923Z,80.90
2019-04-10T11:31:21.003Z,80.00
2019-04-10T11:33:55.617Z,76.30
2019-04-10T11:36:26.019Z,75.80
2019-04-10T11:39:09.182Z,78.00
2019-04-10T11:41:33.088Z,79.10
2019-04-10T11:44:04.643Z,78.60
2019-04-10T11:46:37.960Z,74.60
2019-04-10T11:49:11.068Z,73.80
2019-04-10T11:51:45.269Z,73.30
2019-04-10T11:54:18.023Z,75.60
2019-04-10T11:56:52.687Z,76.30
2019-04-10T11:59:24.127Z,77.60
2019-04-10T12:01:58.978Z,77.40
2019-04-10T12:04:30.816Z,77.90
2019-04-10T12:07:02.058Z,74.00
2019-04-10T12:12:06.271Z,72.30
2019-04-10T12:14:37.731Z,71.50
2019-04-10T12:17:09.659Z,69.70
2019-04-10T12:19:40.806Z,73.20
2019-04-10T12:22:12.043Z,72.20
2019-04-10T12:24:44.159Z,73.10
2019-04-10T12:27:15.385Z,69.40
2019-04-10T12:29:46.741Z,71.50
2019-04-10T12:32:18.855Z,72.50
2019-04-10T12:34:50.791Z,72.10
2019-04-10T12:37:23.518Z,72.60
2019-04-10T12:39:55.151Z,72.50
2019-04-10T12:42:26.390Z,71.50
2019-04-10T12:44:57.786Z,72.50
2019-04-10T12:47:30.026Z,69.00
2019-04-10T12:50:02.088Z,68.80
2019-04-10T12:52:33.075Z,70.40
2019-04-10T12:55:04.576Z,67.90
2019-04-10T12:57:35.501Z,68.70
2019-04-10T13:00:11.871Z,69.40
2019-04-10T13:02:43.021Z,69.10
2019-04-10T13:05:13.995Z,67.40
2019-04-10T13:07:45.614Z,69.80
2019-04-10T13:10:16.647Z,66.60
2019-04-10T13:12:47.783Z,69.20
2019-04-10T13:15:19.321Z,68.80
2019-04-10T13:17:53.113Z,69.50
2019-04-10T13:20:24.740Z,70.60
2019-04-10T13:22:56.305Z,68.20
2019-04-10T13:25:27.480Z,69.40
2019-04-10T13:27:59.051Z,69.40
2019-04-10T13:30:41.486Z,69.10
2019-04-10T13:33:05.139Z,67.40
2019-04-10T13:35:36.267Z,68.60
2019-04-10T13:38:07.417Z,67.80
2019-04-10T13:40:39.512Z,66.50
2019-04-10T13:43:11.738Z,66.80
2019-04-10T13:45:52.432Z,68.10
2019-04-10T13:48:23.438Z,68.40
2019-04-10T13:50:54.899Z,66.80
2019-04-10T13:53:26.057Z,68.40
2019-04-10T13:55:57.006Z,70.20
2019-04-10T13:58:28.995Z,69.10
2019-04-10T14:01:00.962Z,68.40
2019-04-10T14:03:32.003Z,66.60
2019-04-10T14:06:03.382Z,67.90
2019-04-10T14:08:56.153Z,68.00
2019-04-10T14:11:08.924Z,68.60
2019-04-10T14:13:40.203Z,67.30
2019-04-10T14:16:11.090Z,66.60
2019-04-10T14:18:43.150Z,67.30
2019-04-10T14:21:16.895Z,68.20
2019-04-10T14:23:47.562Z,68.20
2019-04-10T14:26:39.126Z,67.50
2019-04-10T14:29:03.728Z,67.80
2019-04-10T14:31:38.497Z,69.20
2019-04-10T14:34:10.349Z,66.80
2019-04-10T14:36:42.246Z,68.30
2019-04-10T14:39:18.451Z,65.20
2019-04-10T14:41:47.896Z,62.40
2019-04-10T14:44:19.307Z,64.40
2019-04-10T14:46:50.209Z,64.20
2019-04-10T14:49:22.175Z,62.40
2019-04-10T14:51:53.078Z,64.00
2019-04-10T14:54:24.323Z,63.00
2019-04-10T14:56:55.269Z,62.60
2019-04-10T14:59:26.615Z,61.70
2019-04-10T15:01:58.003Z,61.00
2019-04-10T15:04:30.351Z,63.20
2019-04-10T15:07:01.840Z,61.70
2019-04-10T15:09:33.135Z,61.30
2019-04-10T15:12:04.978Z,63.10
2019-04-10T15:14:35.994Z,60.20
2019-04-10T15:17:07.990Z,58.40
2019-04-10T15:19:40.542Z,61.10
2019-04-10T15:22:12.066Z,59.20
2019-04-10T15:24:44.724Z,57.90
2019-04-10T15:27:15.972Z,60.10
2019-04-10T15:29:47.165Z,61.00
2019-04-10T15:32:18.075Z,62.10
2019-04-10T15:34:49.239Z,64.30
2019-04-10T15:37:20.721Z,67.80
2019-04-10T15:39:51.938Z,66.90
2019-04-10T15:42:24.091Z,66.20
2019-04-10T15:44:55.071Z,65.30
2019-04-10T15:47:26.991Z,65.70
2019-04-10T15:49:58.468Z,64.30
2019-04-10T15:52:29.442Z,65.50
2019-04-10T15:55:01.577Z,66.40
2019-04-10T15:57:44.224Z,67.20
2019-04-10T16:00:08.553Z,66.60
2019-04-10T16:02:40.606Z,68.00
2019-04-10T16:05:13.234Z,67.20
2019-04-10T16:07:44.818Z,68.80
2019-04-10T16:10:41.341Z,69.20
2019-04-10T16:13:50.553Z,66.20
2019-04-10T16:16:44.744Z,66.70
2019-04-10T16:19:31.287Z,68.50
2019-04-10T16:22:06.630Z,67.00
2019-04-10T16:24:38.748Z,68.30
2019-04-10T16:27:13.966Z,67.40
2019-04-10T16:29:47.567Z,66.70
2019-04-10T16:32:21.030Z,67.20
2019-04-10T16:34:52.275Z,67.00
2019-04-10T16:37:24.254Z,66.70
2019-04-10T16:40:00.461Z,66.90
2019-04-10T16:42:28.923Z,66.60
2019-04-10T16:45:00.088Z,66.40
2019-04-10T16:47:32.385Z,67.70
2019-04-10T16:50:03.611Z,66.30
2019-04-10T16:52:34.749Z,66.00
2019-04-10T16:55:06.540Z,66.90
2019-04-10T16:57:38.725Z,67.30
2019-04-10T17:00:14.162Z,66.90
2019-04-10T17:02:44.459Z,67.50
2019-04-10T17:05:16.517Z,67.90
2019-04-10T17:07:47.883Z,67.20
2019-04-10T17:10:24.369Z,66.70
2019-04-10T17:12:53.952Z,68.40
2019-04-10T17:15:26.075Z,66.30
2019-04-10T17:17:57.383Z,68.30
2019-04-10T17:20:28.977Z,68.00
2019-04-10T17:23:02.889Z,68.10
2019-04-10T17:25:34.367Z,68.10
2019-04-10T17:28:05.840Z,68.40
2019-04-10T17:30:37.907Z,69.80
2019-04-10T17:33:09.543Z,69.90
2019-04-10T17:35:40.539Z,69.80
2019-04-10T17:38:12.027Z,71.10
2019-04-10T17:40:48.792Z,71.20
2019-04-10T17:43:16.866Z,71.00
2019-04-10T17:45:48.947Z,71.50
2019-04-10T17:48:20.005Z,71.00
2019-04-10T17:50:50.907Z,71.60
2019-04-10T17:53:23.143Z,72.40
2019-04-10T17:55:54.440Z,72.50
2019-04-10T17:58:25.808Z,72.90
2019-04-10T18:00:58.043Z,73.30
2019-04-10T18:03:39.596Z,73.60
2019-04-10T18:06:01.833Z,73.80
2019-04-10T18:08:33.130Z,73.50
2019-04-10T18:11:04.162Z,73.70
2019-04-10T18:13:36.258Z,73.90
2019-04-10T18:16:08.483Z,75.10
2019-04-10T18:18:40.112Z,75.40
2019-04-10T18:21:11.374Z,74.40
2019-04-10T18:23:42.512Z,74.60
2019-04-10T18:26:14.175Z,75.80
2019-04-10T18:28:45.640Z,75.60
2019-04-10T18:31:16.883Z,74.50
2019-04-10T18:33:48.961Z,75.60
2019-04-10T18:36:20.263Z,75.00
2019-04-10T18:38:52.719Z,75.00
2019-04-10T18:41:24.216Z,74.70
2019-04-10T18:43:56.340Z,74.40
2019-04-10T18:46:27.580Z,74.50
2019-04-10T18:48:58.974Z,74.50
2019-04-10T18:51:32.312Z,72.50
2019-04-10T18:54:03.902Z,74.10
2019-04-10T18:56:35.478Z,74.40
2019-04-10T18:59:16.750Z,74.00
2019-04-10T19:02:13.731Z,74.50
2019-04-10T19:04:49.991Z,73.20
2019-04-10T19:07:21.212Z,73.10
2019-04-10T19:09:52.654Z,72.60
2019-04-10T19:12:24.445Z,73.40
2019-04-10T19:14:56.373Z,74.40
2019-04-10T19:17:27.228Z,72.60
2019-04-10T19:19:58.792Z,74.70
2019-04-10T19:22:30.681Z,74.70
2019-04-10T19:25:03.106Z,74.20
2019-04-10T19:27:34.662Z,74.50
2019-04-10T19:30:10.993Z,74.70
2019-04-10T19:32:42.250Z,75.80
2019-04-10T19:35:13.536Z,75.50
2019-04-10T19:37:45.712Z,76.50
2019-04-10T19:40:19.477Z,76.80
2019-04-10T19:42:51.435Z,78.30
2019-04-10T19:45:23.770Z,78.70
2019-04-10T19:47:55.447Z,77.30
2019-04-10T19:50:27.752Z,78.40
2019-04-10T19:53:00.534Z,78.90
2019-04-10T19:55:33.772Z,79.20
2019-04-10T19:58:05.966Z,79.30
2019-04-10T20:00:37.274Z,80.10
2019-04-10T20:03:08.686Z,80.20
2019-04-10T20:05:41.521Z,80.70
2019-04-10T20:08:13.202Z,81.20
2019-04-10T20:10:44.218Z,81.20
2019-04-10T20:13:16.517Z,82.20
2019-04-10T20:15:48.902Z,81.90
2019-04-10T20:18:21.024Z,82.20
2019-04-10T20:20:53.311Z,82.60
2019-04-10T20:23:24.766Z,82.70
2019-04-10T20:25:56.875Z,83.60
2019-04-10T20:28:28.883Z,83.60
2019-04-10T20:31:01.332Z,83.30
2019-04-10T20:33:34.639Z,83.40
2019-04-10T20:36:06.812Z,84.40
2019-04-10T20:38:38.776Z,83.80
2019-04-10T20:41:10.687Z,84.20
2019-04-10T20:43:42.846Z,84.70
2019-04-10T20:46:13.929Z,85.70
2019-04-10T20:48:45.111Z,84.90
2019-04-10T20:51:18.645Z,85.20
2019-04-10T20:53:50.511Z,85.50
2019-04-10T20:56:22.295Z,85.40
2019-04-10T20:58:54.853Z,85.40
2019-04-10T21:01:26.631Z,85.40
2019-04-10T21:03:58.776Z,86.20
2019-04-10T21:06:30.072Z,86.50
2019-04-10T21:09:01.212Z,86.60
2019-04-10T21:11:33.674Z,86.80
2019-04-10T21:14:05.238Z,86.70
2019-04-10T21:16:37.796Z,86.80
2019-04-10T21:19:09.570Z,87.40
2019-04-10T21:21:41.923Z,87.80
2019-04-10T21:24:13.357Z,87.70
2019-04-10T21:26:44.780Z,88.00
2019-04-10T21:29:25.532Z,87.80
2019-04-10T21:32:05.195Z,87.80
2019-04-10T21:34:39.222Z,87.70
2019-04-10T21:37:10.899Z,88.10
2019-04-10T21:39:41.782Z,88.00
2019-04-10T21:42:21.101Z,88.00
2019-04-10T21:44:46.007Z,88.40
2019-04-10T21:47:17.341Z,89.20
2019-04-10T21:49:48.461Z,88.60
2019-04-10T21:52:20.559Z,88.60
2019-04-10T21:54:55.927Z,88.90
2019-04-10T21:57:24.365Z,88.60
2019-04-10T21:59:56.024Z,88.70
2019-04-10T22:02:27.371Z,88.80
2019-04-10T22:04:59.614Z,89.10
2019-04-10T22:07:38.513Z,89.40
2019-04-10T22:10:18.063Z,89.60
2019-04-10T22:12:51.014Z,89.40
2019-04-10T22:15:28.862Z,89.50
2019-04-10T22:18:00.854Z,89.40
2019-04-10T22:20:33.853Z,89.30
2019-04-10T22:23:05.104Z,89.90
2019-04-10T22:25:37.386Z,90.00
2019-04-10T22:28:08.779Z,90.10
2019-04-10T22:30:39.747Z,90.20
2019-04-10T22:33:11.716Z,90.20
2019-04-10T22:35:42.859Z,90.00
2019-04-10T22:38:15.177Z,90.20
2019-04-10T22:40:46.495Z,90.20
2019-04-10T22:43:18.128Z,89.90
2019-04-10T22:45:49.347Z,90.00
2019-04-10T22:48:20.986Z,90.00
2019-04-10T22:50:52.170Z,90.10
2019-04-10T22:53:23.497Z,90.10
2019-04-10T22:55:54.750Z,90.30
2019-04-10T22:58:26.713Z,90.40
2019-04-10T23:00:58.047Z,90.50
2019-04-10T23:03:30.161Z,90.60
2019-04-10T23:06:01.666Z,90.20
2019-04-10T23:08:33.576Z,90.40
2019-04-10T23:11:05.697Z,90.40
2019-04-10T23:13:38.239Z,90.20
2019-04-10T23:16:09.825Z,90.30
2019-04-10T23:18:41.376Z,90.50
2019-04-10T23:21:12.444Z,90.60
2019-04-10T23:23:43.662Z,90.70
2019-04-10T23:26:15.855Z,90.60
2019-04-10T23:28:47.465Z,90.30
2019-04-10T23:31:18.871Z,90.40
2019-04-10T23:33:54.508Z,90.20
2019-04-10T23:36:26.492Z,90.20
2019-04-10T23:38:58.026Z,90.30
2019-04-10T23:41:29.608Z,90.50
2019-04-10T23:44:02.003Z,90.30
2019-04-10T23:46:33.172Z,90.30
2019-04-10T23:49:04.078Z,90.30
2019-04-10T23:51:35.211Z,90.20
2019-04-10T23:54:06.623Z,90.20
2019-04-10T23:56:38.029Z,90.30
2019-04-10T23:59:09.416Z,90.40
